createdAt,value
2023-05-26T00:00:04.327Z,97.66
2023-05-26T00:03:08.557Z,97.41
2023-05-26T00:06:11.254Z,98.54
2023-05-26T00:09:13.700Z,98.33
2023-05-26T00:12:15.282Z,97.80
2023-05-26T00:15:16.791Z,98.12
2023-05-26T00:18:18.617Z,98.64
2023-05-26T00:21:20.236Z,98.47
2023-05-26T00:24:21.771Z,98.28
2023-05-26T00:27:23.290Z,98.58
2023-05-26T00:30:25.010Z,99.15
2023-05-26T00:33:26.559Z,99.79
2023-05-26T00:36:28.125Z,99.58
2023-05-26T00:39:31.296Z,100.00
2023-05-26T00:42:32.822Z,99.82
2023-05-26T00:45:37.613Z,100.00
2023-05-26T00:48:39.227Z,100.00
2023-05-26T00:51:44.375Z,100.00
2023-05-26T00:54:45.905Z,100.00
2023-05-26T00:57:48.279Z,100.00
2023-05-26T01:00:49.928Z,100.00
2023-05-26T01:03:52.626Z,100.00
2023-05-26T01:06:54.249Z,100.00
2023-05-26T01:09:55.772Z,100.00
2023-05-26T01:13:09.712Z,100.00
2023-05-26T01:16:15.048Z,100.00
2023-05-26T01:19:42.082Z,100.00
2023-05-26T01:22:52.385Z,100.00
2023-05-26T01:26:02.635Z,100.00
2023-05-26T01:29:19.146Z,100.00
2023-05-26T01:32:21.047Z,100.00
2023-05-26T01:35:23.993Z,100.00
2023-05-26T01:38:25.662Z,100.00
2023-05-26T01:41:41.048Z,100.00
2023-05-26T01:45:07.569Z,100.00
2023-05-26T01:48:10.434Z,100.00
2023-05-26T01:51:14.485Z,100.00
2023-05-26T01:54:19.506Z,100.00
2023-05-26T01:57:21.670Z,100.00
2023-05-26T02:00:27.574Z,100.00
2023-05-26T02:03:29.197Z,100.00
2023-05-26T02:06:30.932Z,100.00
2023-05-26T02:09:33.093Z,100.00
2023-05-26T02:12:34.602Z,100.00
2023-05-26T02:15:36.392Z,100.00
2023-05-26T02:18:38.061Z,100.00
2023-05-26T02:21:39.924Z,100.00
2023-05-26T02:24:41.406Z,100.00
2023-05-26T02:27:43.096Z,100.00
2023-05-26T02:30:45.098Z,100.00
2023-05-26T02:33:46.589Z,100.00
2023-05-26T02:36:48.123Z,100.00
2023-05-26T02:39:49.607Z,100.00
2023-05-26T02:42:51.067Z,100.00
2023-05-26T02:45:53.518Z,100.00
2023-05-26T02:48:55.086Z,100.00
2023-05-26T02:51:56.642Z,100.00
2023-05-26T02:54:58.201Z,100.00
2023-05-26T02:58:01.766Z,100.00
2023-05-26T03:01:04.003Z,100.00
2023-05-26T03:04:05.630Z,100.00
2023-05-26T03:07:09.081Z,100.00
2023-05-26T03:10:12.015Z,100.00
2023-05-26T03:13:13.780Z,100.00
2023-05-26T03:16:15.421Z,100.00
2023-05-26T03:19:17.126Z,100.00
2023-05-26T03:22:41.578Z,100.00
2023-05-26T03:25:40.932Z,100.00
2023-05-26T03:28:42.490Z,100.00
2023-05-26T03:31:44.835Z,100.00
2023-05-26T03:34:46.904Z,100.00
2023-05-26T03:37:50.113Z,100.00
2023-05-26T03:40:52.279Z,100.00
2023-05-26T03:43:54.624Z,100.00
2023-05-26T03:46:56.738Z,100.00
2023-05-26T03:49:59.905Z,100.00
2023-05-26T03:53:02.217Z,100.00
2023-05-26T03:56:04.359Z,100.00
2023-05-26T03:59:05.936Z,100.00
2023-05-26T04:02:08.927Z,100.00
2023-05-26T04:05:10.865Z,100.00
2023-05-26T04:08:12.464Z,100.00
2023-05-26T04:11:14.693Z,100.00
2023-05-26T04:14:16.362Z,100.00
2023-05-26T04:17:18.038Z,100.00
2023-05-26T04:20:20.888Z,100.00
2023-05-26T04:23:22.656Z,100.00
2023-05-26T04:26:25.698Z,100.00
2023-05-26T04:29:45.938Z,100.00
2023-05-26T04:33:16.809Z,100.00
2023-05-26T04:36:42.274Z,100.00
2023-05-26T04:39:43.885Z,100.00
2023-05-26T04:42:45.543Z,100.00
2023-05-26T04:45:47.342Z,100.00
2023-05-26T04:48:49.337Z,100.00
2023-05-26T04:51:55.361Z,99.21
2023-05-26T04:54:57.588Z,98.60
2023-05-26T04:57:59.283Z,98.31
2023-05-26T05:01:04.463Z,97.33
2023-05-26T05:04:23.389Z,96.19
2023-05-26T05:07:31.672Z,94.47
2023-05-26T05:10:44.040Z,93.60
2023-05-26T05:13:50.896Z,93.52
2023-05-26T05:16:53.632Z,94.17
2023-05-26T05:20:10.021Z,93.15
2023-05-26T05:23:19.620Z,92.13
2023-05-26T05:26:23.168Z,91.87
2023-05-26T05:29:25.683Z,91.55
2023-05-26T05:35:55.567Z,90.83
2023-05-26T05:38:58.322Z,90.97
2023-05-26T05:42:00.290Z,90.28
2023-05-26T05:45:03.452Z,89.64
2023-05-26T05:48:25.424Z,89.43
2023-05-26T05:51:33.588Z,89.41
2023-05-26T05:54:35.240Z,88.93
2023-05-26T05:57:37.190Z,88.38
2023-05-26T06:00:38.713Z,88.31
2023-05-26T06:03:40.374Z,88.51
2023-05-26T06:06:42.239Z,88.09
2023-05-26T06:09:45.099Z,88.17
2023-05-26T06:12:46.695Z,89.52
2023-05-26T06:15:49.195Z,91.19
2023-05-26T06:18:51.320Z,90.43
2023-05-26T06:22:02.143Z,90.29
2023-05-26T06:25:05.140Z,90.03
2023-05-26T06:28:06.980Z,90.33
2023-05-26T06:31:14.030Z,89.25
2023-05-26T06:34:26.281Z,88.48
2023-05-26T06:37:27.952Z,88.22
2023-05-26T06:40:29.544Z,88.84
2023-05-26T06:43:31.161Z,88.48
2023-05-26T06:46:33.375Z,87.45
2023-05-26T06:49:35.107Z,86.72
2023-05-26T06:52:42.850Z,86.02
2023-05-26T06:55:44.525Z,85.76
2023-05-26T06:58:46.049Z,85.53
2023-05-26T07:01:48.472Z,84.73
2023-05-26T07:04:50.829Z,83.53
2023-05-26T07:07:53.981Z,82.60
2023-05-26T07:10:55.774Z,82.93
2023-05-26T07:13:57.425Z,83.18
2023-05-26T07:17:01.644Z,81.76
2023-05-26T07:20:11.181Z,82.03
2023-05-26T07:23:12.943Z,81.78
2023-05-26T07:26:17.187Z,81.69
2023-05-26T07:29:19.387Z,81.78
2023-05-26T07:32:29.974Z,80.84
2023-05-26T07:35:33.495Z,79.77
2023-05-26T07:38:35.805Z,79.97
2023-05-26T07:41:38.196Z,79.80
2023-05-26T07:44:39.681Z,78.97
2023-05-26T07:47:41.899Z,78.10
2023-05-26T07:50:43.731Z,78.46
2023-05-26T07:53:48.326Z,77.97
2023-05-26T07:56:52.755Z,77.28
2023-05-26T07:59:54.384Z,76.78
2023-05-26T08:02:56.717Z,76.98
2023-05-26T08:06:02.787Z,75.99
2023-05-26T08:09:06.836Z,74.89
2023-05-26T08:12:08.714Z,75.00
2023-05-26T08:15:16.514Z,74.16
2023-05-26T08:18:20.388Z,74.10
2023-05-26T08:21:21.974Z,74.08
2023-05-26T08:24:25.922Z,73.07
2023-05-26T08:27:27.519Z,73.08
2023-05-26T08:30:28.995Z,72.64
2023-05-26T08:33:30.618Z,72.31
2023-05-26T08:36:32.245Z,71.74
2023-05-26T08:39:33.742Z,71.09
2023-05-26T08:42:44.179Z,70.81
2023-05-26T08:45:46.432Z,70.80
2023-05-26T08:48:49.520Z,70.65
2023-05-26T08:52:15.286Z,70.09
2023-05-26T08:55:17.555Z,69.86
2023-05-26T08:58:20.734Z,69.30
2023-05-26T09:01:22.422Z,69.48
2023-05-26T09:04:24.379Z,68.71
2023-05-26T09:07:28.058Z,68.08
2023-05-26T09:10:33.247Z,67.97
2023-05-26T09:13:40.929Z,67.15
2023-05-26T09:16:42.538Z,66.72
2023-05-26T09:19:44.224Z,66.73
2023-05-26T09:22:46.711Z,66.57
2023-05-26T09:25:51.441Z,66.21
2023-05-26T09:28:53.551Z,65.59
2023-05-26T09:31:55.219Z,65.61
2023-05-26T09:35:04.311Z,64.97
2023-05-26T09:38:10.643Z,64.68
2023-05-26T09:41:12.269Z,64.85
2023-05-26T09:44:18.541Z,64.70
2023-05-26T09:47:21.795Z,64.21
2023-05-26T09:50:24.000Z,64.30
2023-05-26T09:53:25.809Z,64.46
2023-05-26T09:56:30.592Z,64.16
2023-05-26T09:59:39.764Z,64.68
2023-05-26T10:02:42.629Z,63.68
2023-05-26T10:05:48.050Z,63.84
2023-05-26T10:08:53.610Z,63.30
2023-05-26T10:11:59.192Z,63.23
2023-05-26T10:15:01.765Z,62.52
2023-05-26T10:18:03.764Z,62.92
2023-05-26T10:21:10.223Z,62.56
2023-05-26T10:24:24.299Z,62.79
2023-05-26T10:27:37.618Z,62.46
2023-05-26T10:30:42.032Z,61.83
2023-05-26T10:33:45.459Z,61.49
2023-05-26T10:37:01.155Z,61.27
2023-05-26T10:40:03.298Z,61.05
2023-05-26T10:43:20.107Z,60.64
